Time;durP1;ratioP1;P1;durP2;ratioP2;P2;SDS_P1;SDS_P2;PMS_P1;PMS_P2;Temp;Humidity;BMP_temperature;BMP_pressure;BME280_temperature;BME280_humidity;BME280_pressure;Samples;Min_cycle;Max_cycle;Signal;HPM_P1;HPM_P2
2024/03/22 00:00:11;;;;;;;12.35;7.28;;;;;;;9.87;76.12;93471.75;2071157;69;20205;-79
2024/03/22 00:02:39;;;;;;;12.25;6.78;;;;;;;9.88;76.46;93464.81;2071147;69;20243;-82
2024/03/22 00:05:06;;;;;;;6.93;5.43;;;;;;;9.95;75.47;93466.03;2067835;69;20252;-82
2024/03/22 00:07:35;;;;;;;6.93;5.00;;;;;;;9.83;75.65;93468.63;2067623;69;20592;-81
2024/03/22 00:10:05;;;;;;;8.98;6.25;;;;;;;9.88;74.99;93473.25;2072092;69;20232;-82
2024/03/22 00:12:31;;;;;;;10.95;6.90;;;;;;;9.96;74.16;93476.66;2071907;69;20310;-83
2024/03/22 00:14:57;;;;;;;11.35;6.88;;;;;;;10.02;74.01;93470.75;2072067;69;20271;-81
2024/03/22 00:17:23;;;;;;;10.07;6.95;;;;;;;9.95;74.63;93472.38;2071888;69;20719;-80
2024/03/22 00:19:49;;;;;;;8.27;5.53;;;;;;;9.92;74.75;93479.91;2072165;69;20156;-77
2024/03/22 00:22:16;;;;;;;7.00;5.30;;;;;;;9.95;74.87;93472.38;2065826;69;20149;-82
2024/03/22 00:24:42;;;;;;;7.05;4.90;;;;;;;9.96;74.50;93470.31;2071965;69;20219;-81
2024/03/22 00:27:12;;;;;;;7.32;4.80;;;;;;;9.96;74.56;93471.03;2072020;69;20147;-79
2024/03/22 00:29:38;;;;;;;6.53;5.30;;;;;;;9.91;74.79;93461.56;2071770;69;20242;-82
2024/03/22 00:32:07;;;;;;;8.02;5.03;;;;;;;9.95;74.44;93466.03;2071798;69;20247;-82
2024/03/22 00:34:33;;;;;;;8.80;4.93;;;;;;;9.87;74.95;93468.94;2071682;69;20156;-82
2024/03/22 00:37:01;;;;;;;7.30;5.25;;;;;;;9.89;74.28;93469.84;2072192;69;20183;-81
2024/03/22 00:39:29;;;;;;;7.55;5.15;;;;;;;9.82;75.12;93459.47;2072101;69;20209;-80
2024/03/22 00:41:55;;;;;;;9.30;5.20;;;;;;;9.91;74.53;93472.81;2072518;69;20579;-85
2024/03/22 00:44:24;;;;;;;7.32;5.32;;;;;;;9.88;74.69;93467.63;2071842;69;20156;-81
2024/03/22 00:46:50;;;;;;;6.85;5.20;;;;;;;9.73;74.23;93457.38;2071815;69;20233;-83
2024/03/22 00:49:16;;;;;;;7.68;5.53;;;;;;;9.77;74.64;93459.75;2068679;69;20216;-80
2024/03/22 00:51:44;;;;;;;8.13;5.45;;;;;;;9.66;74.53;93453.34;2071807;69;20148;-82
2024/03/22 00:54:09;;;;;;;7.57;5.00;;;;;;;9.69;74.29;93443.00;2071620;69;20227;-83
2024/03/22 00:56:35;;;;;;;6.90;5.22;;;;;;;9.85;74.81;93451.91;2071859;69;20171;-81
2024/03/22 01:02:47;;;;;;;9.27;5.15;;;;;;;9.78;75.41;93436.66;2071488;69;20128;-79
2024/03/22 01:05:14;;;;;;;7.32;5.38;;;;;;;9.82;74.96;93431.34;2071716;69;20140;-80
2024/03/22 01:07:39;;;;;;;8.85;5.40;;;;;;;9.75;75.47;93435.03;2071746;69;20140;-85
2024/03/22 01:10:06;;;;;;;9.52;5.10;;;;;;;9.70;75.09;93435.31;2071900;69;20144;-81
2024/03/22 01:12:31;;;;;;;5.93;4.63;;;;;;;9.68;75.24;93441.53;2071621;69;20152;-82
2024/03/22 01:14:58;;;;;;;7.88;4.72;;;;;;;9.66;74.27;93446.97;2071473;69;20685;-80
2024/03/22 01:17:24;;;;;;;7.55;4.93;;;;;;;9.59;74.73;93440.16;2068104;69;20144;-78
2024/03/22 01:19:51;;;;;;;5.70;4.90;;;;;;;9.44;75.71;93429.19;2071371;69;20145;-83
2024/03/22 01:22:18;;;;;;;5.72;4.55;;;;;;;9.47;75.27;93438.50;2071474;69;20687;-82
2024/03/22 01:24:44;;;;;;;5.13;4.25;;;;;;;9.48;75.49;93434.34;2071630;69;20141;-82
2024/03/22 01:27:10;;;;;;;9.43;4.88;;;;;;;9.39;74.67;93430.94;2071621;69;20149;-82
2024/03/22 01:29:36;;;;;;;5.72;4.60;;;;;;;9.37;74.63;93430.78;2071585;69;20160;-80
2024/03/22 01:32:02;;;;;;;6.40;4.60;;;;;;;9.29;74.73;93430.13;2068284;69;20140;-81
2024/03/22 01:34:29;;;;;;;5.28;4.18;;;;;;;9.26;74.61;93430.59;2071518;69;20573;-82
2024/03/22 01:36:55;;;;;;;5.45;4.10;;;;;;;9.22;73.99;93433.81;2071390;69;20159;-81
2024/03/22 01:39:25;;;;;;;6.10;4.40;;;;;;;9.01;74.33;93416.72;2071553;69;20224;-81
2024/03/22 01:45:41;;;;;;;5.40;4.03;;;;;;;8.93;74.14;93430.13;2071519;69;20198;-82
2024/03/22 01:48:10;;;;;;;5.22;3.60;;;;;;;8.86;74.42;93438.06;2071508;69;20171;-83
2024/03/22 01:50:36;;;;;;;5.45;3.92;;;;;;;8.78;73.44;93442.31;2071537;69;20156;-81
2024/03/22 01:53:03;;;;;;;7.03;4.00;;;;;;;8.65;74.12;93418.88;2071486;69;20235;-82
2024/03/22 01:55:29;;;;;;;4.28;3.50;;;;;;;8.66;74.22;93416.84;2071587;69;20160;-81
2024/03/22 01:57:56;;;;;;;5.15;3.72;;;;;;;8.53;74.34;93417.19;2065351;69;20160;-83
2024/03/22 02:00:22;;;;;;;6.53;3.83;;;;;;;8.35;74.23;93408.75;2071469;69;20618;-81
2024/03/22 02:02:48;;;;;;;7.32;3.25;;;;;;;8.28;74.81;93397.63;2068036;69;20128;-81
2024/03/22 02:05:21;;;;;;;5.07;3.40;;;;;;;8.35;74.67;93411.56;2065564;69;20155;-81
2024/03/22 02:07:47;;;;;;;6.28;3.40;;;;;;;8.32;74.98;93406.38;2071391;69;20218;-79
2024/03/22 02:10:14;;;;;;;6.90;3.55;;;;;;;8.23;74.82;93404.97;2071387;69;20235;-84
2024/03/22 02:12:41;;;;;;;6.13;3.58;;;;;;;8.10;74.96;93402.50;2071747;69;20140;-81
2024/03/22 02:15:08;;;;;;;4.43;3.22;;;;;;;8.14;74.30;93403.56;2071437;69;20168;-81
2024/03/22 02:17:34;;;;;;;4.30;3.15;;;;;;;8.09;74.37;93396.16;2071192;69;20243;-79
2024/03/22 02:20:00;;;;;;;4.40;3.17;;;;;;;7.76;74.85;93381.56;2071586;69;20156;-85
2024/03/22 02:22:27;;;;;;;5.28;3.25;;;;;;;7.84;75.13;93399.06;2071563;69;20528;-81
2024/03/22 02:24:52;;;;;;;4.20;3.10;;;;;;;7.95;74.87;93391.47;2071588;69;20614;-82
2024/03/22 02:27:18;;;;;;;4.65;3.20;;;;;;;8.01;74.72;93380.75;2071631;69;20152;-82
2024/03/22 02:29:44;;;;;;;5.35;2.85;;;;;;;7.92;74.90;93378.59;2071637;69;20147;-82
2024/03/22 02:32:13;;;;;;;4.50;3.30;;;;;;;7.80;74.77;93375.56;2070635;69;20156;-81
2024/03/22 02:34:39;;;;;;;5.25;2.80;;;;;;;7.61;75.43;93376.88;2071026;69;20606;-81
2024/03/22 02:37:04;;;;;;;7.25;3.40;;;;;;;7.67;75.44;93385.03;2071456;69;20156;-80
2024/03/22 02:39:30;;;;;;;5.22;3.30;;;;;;;7.63;75.52;93367.88;2071450;69;20623;-80
2024/03/22 02:41:56;;;;;;;3.90;2.97;;;;;;;7.62;75.67;93383.97;2071469;69;20516;-80
2024/03/22 02:44:22;;;;;;;7.00;3.30;;;;;;;7.60;75.66;93380.22;2071497;69;20156;-81
2024/03/22 02:46:47;;;;;;;6.95;3.13;;;;;;;7.56;75.09;93385.50;2071139;69;20155;-83
2024/03/22 02:49:13;;;;;;;5.80;3.20;;;;;;;7.45;75.82;93378.31;2071571;69;20533;-82
2024/03/22 02:51:38;;;;;;;4.13;3.10;;;;;;;7.49;75.42;93380.72;2071391;69;20167;-80
2024/03/22 02:54:05;;;;;;;5.47;3.00;;;;;;;7.48;74.98;93373.66;2071541;69;20144;-81
2024/03/22 02:56:30;;;;;;;4.28;3.13;;;;;;;7.37;75.58;93383.25;2071583;69;20205;-83
2024/03/22 02:58:56;;;;;;;6.47;3.50;;;;;;;7.31;74.97;93377.16;2071456;69;20152;-82
2024/03/22 03:05:10;;;;;;;7.97;3.15;;;;;;;7.24;75.82;93383.53;2071614;69;20135;-81
2024/03/22 03:07:35;;;;;;;3.70;2.70;;;;;;;7.15;75.33;93373.75;2071481;69;20140;-83
2024/03/22 03:10:01;;;;;;;4.97;3.17;;;;;;;7.04;76.36;93374.94;2071402;69;20205;-83
2024/03/22 03:12:27;;;;;;;5.18;2.80;;;;;;;7.02;75.83;93362.84;2071534;69;20527;-80
2024/03/22 03:14:52;;;;;;;7.13;3.20;;;;;;;7.00;75.37;93362.66;2071523;69;20655;-79
2024/03/22 03:17:18;;;;;;;4.10;3.30;;;;;;;6.98;76.22;93366.03;2071489;69;20136;-83
2024/03/22 03:19:44;;;;;;;3.72;3.08;;;;;;;7.02;76.00;93363.59;2068157;69;20248;-80
2024/03/22 03:22:10;;;;;;;4.85;2.90;;;;;;;6.99;75.84;93361.91;2071501;69;20159;-82
2024/03/22 03:28:25;;;;;;;4.80;2.90;;;;;;;6.97;75.49;93350.56;2071540;69;20558;-83
2024/03/22 03:30:51;;;;;;;3.63;2.83;;;;;;;6.87;75.95;93358.84;2071485;69;20144;-79
2024/03/22 03:33:17;;;;;;;4.88;2.72;;;;;;;6.78;75.43;93355.91;2068245;69;20175;-78
2024/03/22 03:35:46;;;;;;;6.20;3.03;;;;;;;6.52;75.64;93327.19;2071675;69;20169;-82
2024/03/22 03:38:12;;;;;;;4.43;3.10;;;;;;;6.59;76.06;93365.53;2071551;69;20144;-84
2024/03/22 03:40:38;;;;;;;6.00;2.85;;;;;;;6.57;76.61;93351.41;2071495;69;20589;-83
2024/03/22 03:43:03;;;;;;;4.53;3.00;;;;;;;6.66;76.29;93363.28;2071292;69;20144;-82
2024/03/22 03:45:29;;;;;;;5.20;3.20;;;;;;;6.25;77.76;93359.78;2071995;69;20164;-81
2024/03/22 03:47:54;;;;;;;4.38;3.08;;;;;;;6.42;77.14;93359.16;2072024;69;20150;-80
2024/03/22 03:50:20;;;;;;;7.35;4.30;;;;;;;6.52;76.37;93357.22;2068636;69;20136;-81
2024/03/22 03:52:46;;;;;;;5.50;3.28;;;;;;;6.49;75.46;93361.13;2072118;69;20140;-82
2024/03/22 03:55:11;;;;;;;6.47;3.78;;;;;;;6.02;79.72;93366.22;2068657;69;20145;-81
2024/03/22 03:57:37;;;;;;;6.68;3.20;;;;;;;6.27;77.48;93360.69;2071791;69;20199;-81
2024/03/22 04:00:03;;;;;;;6.40;3.20;;;;;;;6.30;76.30;93364.41;2072007;69;20480;-82
2024/03/22 04:02:31;;;;;;;5.45;3.13;;;;;;;6.16;76.46;93371.56;2071774;69;20235;-82
2024/03/22 04:04:57;;;;;;;5.13;2.97;;;;;;;6.20;76.63;93371.94;2072176;69;20507;-81
2024/03/22 04:07:23;;;;;;;5.03;3.20;;;;;;;6.15;77.33;93365.25;2068671;69;20190;-79
2024/03/22 04:09:48;;;;;;;4.18;2.88;;;;;;;6.00;77.98;93359.69;2072064;69;20172;-83
2024/03/22 04:12:14;;;;;;;6.40;3.65;;;;;;;6.20;77.15;93350.31;2072057;69;20519;-81
2024/03/22 04:14:40;;;;;;;4.07;2.60;;;;;;;6.37;75.96;93355.25;2071901;69;20235;-82
2024/03/22 04:17:05;;;;;;;4.35;2.80;;;;;;;6.29;76.08;93346.16;2071842;69;20151;-82
2024/03/22 04:19:31;;;;;;;3.97;2.45;;;;;;;6.26;76.23;93352.88;2072014;69;20161;-80
2024/03/22 04:21:56;;;;;;;3.72;2.70;;;;;;;6.19;76.88;93345.28;2071949;69;20171;-82
2024/03/22 04:24:22;;;;;;;5.70;3.25;;;;;;;5.98;77.57;93346.31;2071911;69;20229;-81
2024/03/22 04:26:48;;;;;;;6.05;3.22;;;;;;;6.07;78.09;93342.16;2071924;69;20503;-80
2024/03/22 04:29:14;;;;;;;4.03;2.80;;;;;;;5.94;77.46;93336.81;2071589;69;20182;-80
2024/03/22 04:31:40;;;;;;;5.53;2.88;;;;;;;5.83;78.49;93355.47;2071679;69;20136;-81
2024/03/22 04:34:07;;;;;;;32.67;12.93;;;;;;;5.85;78.79;93347.25;2071992;69;20155;-79
2024/03/22 04:36:33;;;;;;;44.50;19.95;;;;;;;5.97;77.26;93330.84;2068688;69;20187;-82
2024/03/22 04:38:58;;;;;;;16.63;8.32;;;;;;;6.01;76.94;93350.78;2072086;69;20528;-82
2024/03/22 04:41:24;;;;;;;14.35;7.30;;;;;;;6.00;76.37;93351.31;2068709;69;20148;-79
2024/03/22 04:43:50;;;;;;;8.55;4.80;;;;;;;6.07;76.20;93367.31;2071844;69;20152;-81
2024/03/22 04:46:15;;;;;;;10.65;4.85;;;;;;;5.96;76.32;93365.69;2068396;69;20207;-79
2024/03/22 04:48:41;;;;;;;6.03;3.45;;;;;;;5.94;76.21;93364.78;2072001;69;20176;-81
2024/03/22 04:51:06;;;;;;;5.05;3.50;;;;;;;5.93;76.02;93357.69;2071911;69;20168;-81
2024/03/22 04:53:32;;;;;;;4.28;2.50;;;;;;;5.98;76.34;93359.53;2072098;69;20139;-81
2024/03/22 04:55:57;;;;;;;5.07;3.20;;;;;;;5.98;76.18;93367.91;2071813;69;20187;-78
2024/03/22 04:58:23;;;;;;;3.80;2.67;;;;;;;6.05;75.80;93367.16;2071950;69;20286;-80
2024/03/22 05:00:49;;;;;;;4.70;2.53;;;;;;;5.97;75.81;93369.97;2072019;69;20596;-80
2024/03/22 05:03:16;;;;;;;5.05;3.90;;;;;;;5.96;76.34;93354.53;2068481;69;20612;-80
2024/03/22 05:05:42;;;;;;;3.05;2.40;;;;;;;6.02;76.25;93363.44;2071911;69;20148;-81
2024/03/22 05:08:09;;;;;;;3.55;2.35;;;;;;;6.09;75.50;93364.69;2071892;69;20151;-83
2024/03/22 05:10:35;;;;;;;9.40;3.00;;;;;;;6.08;75.78;93361.16;2071837;69;20179;-80
2024/03/22 05:13:01;;;;;;;4.90;2.80;;;;;;;6.10;76.01;93355.03;2071807;69;20542;-81
2024/03/22 05:15:26;;;;;;;3.17;2.38;;;;;;;5.97;76.04;93360.84;2071821;69;20152;-83
2024/03/22 05:17:53;;;;;;;6.63;2.50;;;;;;;5.86;76.66;93357.16;2071411;69;20160;-80
2024/03/22 05:20:19;;;;;;;3.17;2.40;;;;;;;5.98;76.41;93363.06;2071775;69;20152;-79
2024/03/22 05:22:47;;;;;;;5.35;3.30;;;;;;;6.03;75.63;93358.59;2071913;69;20132;-80
2024/03/22 05:25:14;;;;;;;7.00;3.58;;;;;;;5.95;75.86;93364.19;2072062;69;20599;-81
2024/03/22 05:27:41;;;;;;;3.63;2.60;;;;;;;5.77;76.84;93360.53;2071459;69;20140;-82
2024/03/22 05:30:11;;;;;;;6.97;4.25;;;;;;;5.66;76.84;93369.31;2071720;69;20176;-81
2024/03/22 05:32:37;;;;;;;8.40;4.72;;;;;;;5.80;76.75;93369.81;2071620;69;20233;-83
2024/03/22 05:35:02;;;;;;;7.03;4.50;;;;;;;5.64;76.69;93371.19;2068384;69;20577;-83
2024/03/22 05:37:28;;;;;;;6.18;4.65;;;;;;;5.89;75.39;93360.09;2071731;69;20213;-83
2024/03/22 05:39:55;;;;;;;6.18;4.20;;;;;;;5.69;76.92;93367.44;2071843;69;20155;-79
2024/03/22 05:42:20;;;;;;;9.23;4.60;;;;;;;5.86;76.40;93359.16;2071403;69;20147;-81
2024/03/22 05:44:46;;;;;;;9.90;4.60;;;;;;;5.96;75.11;93364.97;2071577;69;20171;-82
2024/03/22 05:47:11;;;;;;;6.70;3.50;;;;;;;5.79;75.47;93337.59;2071555;69;20180;-81
2024/03/22 05:49:37;;;;;;;2.60;2.15;;;;;;;6.03;75.76;93353.00;2071841;69;20167;-82
2024/03/22 05:52:03;;;;;;;4.30;2.70;;;;;;;6.05;74.24;93353.94;2071907;69;20586;-79
2024/03/22 05:54:29;;;;;;;3.58;2.25;;;;;;;6.15;73.69;93356.84;2071714;69;20235;-77
2024/03/22 05:56:56;;;;;;;3.97;2.50;;;;;;;6.11;73.86;93356.50;2071713;69;20213;-82
2024/03/22 05:59:21;;;;;;;6.07;2.70;;;;;;;6.18;74.09;93346.56;2071661;69;20170;-81
2024/03/22 06:01:47;;;;;;;5.63;3.35;;;;;;;5.46;76.64;93356.34;2071635;69;20535;-83
2024/03/22 06:04:13;;;;;;;12.27;6.00;;;;;;;5.59;76.70;93336.56;2071522;69;20151;-84
2024/03/22 06:06:38;;;;;;;4.95;3.67;;;;;;;5.79;74.58;93343.94;2068278;69;20151;-83
2024/03/22 06:09:08;;;;;;;12.25;6.30;;;;;;;5.98;74.72;93363.06;2068262;69;20167;-83
2024/03/22 06:11:34;;;;;;;9.18;4.78;;;;;;;6.03;74.43;93364.16;2067929;69;20137;-82
2024/03/22 06:14:00;;;;;;;8.05;4.70;;;;;;;6.17;74.19;93365.41;2071625;69;20140;-80
2024/03/22 06:16:26;;;;;;;8.30;4.20;;;;;;;6.20;73.50;93358.69;2071797;69;20152;-82
2024/03/22 06:18:51;;;;;;;7.30;3.92;;;;;;;5.89;74.49;93349.66;2071785;69;20643;-83
2024/03/22 06:21:25;;;;;;;7.38;3.90;;;;;;;6.02;74.46;93359.91;2071758;69;20172;-81
2024/03/22 06:23:51;;;;;;;8.75;3.75;;;;;;;5.92;74.55;93356.22;2071683;69;20210;-81
2024/03/22 06:26:18;;;;;;;6.97;4.20;;;;;;;6.11;74.16;93359.28;2072038;69;20195;-80
2024/03/22 06:28:44;;;;;;;6.47;4.00;;;;;;;6.16;74.30;93363.19;2072178;69;20131;-80
2024/03/22 06:31:10;;;;;;;8.38;5.40;;;;;;;6.21;74.58;93362.97;2071659;69;20164;-84
2024/03/22 06:33:35;;;;;;;11.32;7.45;;;;;;;6.20;74.36;93353.09;2071679;69;20137;-82
2024/03/22 06:36:03;;;;;;;12.05;7.93;;;;;;;6.21;73.92;93337.81;2071853;69;20584;-83
2024/03/22 06:38:29;;;;;;;14.98;8.10;;;;;;;6.15;74.46;93339.34;2072276;69;20152;-85
2024/03/22 06:40:54;;;;;;;12.65;8.32;;;;;;;6.18;75.00;93329.81;2072512;69;20148;-83
2024/03/22 06:43:20;;;;;;;11.05;7.07;;;;;;;5.97;75.80;93344.81;2072302;69;20156;-83
2024/03/22 06:45:45;;;;;;;8.75;6.22;;;;;;;6.25;75.07;93338.16;2072269;69;20180;-81
2024/03/22 06:48:11;;;;;;;12.43;5.65;;;;;;;5.80;76.17;93345.41;2071746;69;20608;-85
2024/03/22 06:50:37;;;;;;;12.18;6.63;;;;;;;5.86;77.18;93345.97;2071874;69;20201;-81
2024/03/22 06:53:02;;;;;;;11.52;6.10;;;;;;;6.15;75.94;93339.34;2068753;69;20603;-83
2024/03/22 06:55:28;;;;;;;10.02;6.72;;;;;;;6.36;75.80;93328.59;2071577;69;20151;-83
2024/03/22 06:57:53;;;;;;;12.85;6.65;;;;;;;6.59;75.35;93334.03;2071683;69;20148;-83
2024/03/22 07:00:19;;;;;;;9.38;5.93;;;;;;;6.81;74.63;93318.41;2071506;69;20156;-83
2024/03/22 07:02:45;;;;;;;9.60;6.05;;;;;;;7.10;74.06;93339.06;2071161;69;20570;-83
2024/03/22 07:05:11;;;;;;;10.20;5.63;;;;;;;6.89;73.73;93335.88;2071710;69;20205;-84
2024/03/22 07:07:37;;;;;;;8.80;5.88;;;;;;;7.30;72.86;93330.84;2071461;69;20154;-83
2024/03/22 07:10:05;;;;;;;11.52;6.22;;;;;;;7.13;74.13;93329.50;2071791;69;20176;-82
2024/03/22 07:12:32;;;;;;;8.55;6.40;;;;;;;7.28;74.72;93327.88;2071535;69;20513;-81
2024/03/22 07:14:59;;;;;;;9.02;5.68;;;;;;;7.57;73.76;93322.56;2071730;69;20207;-81
2024/03/22 07:17:24;;;;;;;11.13;6.20;;;;;;;7.73;72.68;93314.72;2071623;69;20151;-81
2024/03/22 07:19:51;;;;;;;12.52;4.95;;;;;;;7.70;71.90;93316.63;2071513;69;20151;-82
2024/03/22 07:22:17;;;;;;;9.13;5.15;;;;;;;8.08;71.66;93323.84;2071234;69;20144;-83
2024/03/22 07:24:43;;;;;;;9.18;4.68;;;;;;;8.08;70.14;93318.97;2068261;69;20164;-83
2024/03/22 07:30:56;;;;;;;9.23;4.82;;;;;;;8.03;70.55;93316.44;2071506;69;20139;-82
2024/03/22 07:33:21;;;;;;;10.18;4.50;;;;;;;8.18;72.27;93310.63;2071229;69;20137;-82
2024/03/22 07:35:47;;;;;;;8.07;5.00;;;;;;;8.46;74.22;93311.38;2071305;69;20594;-82
2024/03/22 07:42:00;;;;;;;15.40;9.40;;;;;;;8.99;72.11;93319.00;2071472;69;20617;-80
2024/03/22 07:44:28;;;;;;;12.05;6.90;;;;;;;9.08;70.00;93309.88;2068069;69;20215;-81
2024/03/22 07:46:54;;;;;;;11.13;6.38;;;;;;;9.52;69.26;93308.19;2071368;69;20156;-79
2024/03/22 07:49:20;;;;;;;11.68;7.28;;;;;;;9.60;67.32;93312.34;2071665;69;20148;-81
2024/03/22 07:51:46;;;;;;;10.32;6.85;;;;;;;9.85;68.77;93308.50;2071472;69;20217;-84
2024/03/22 07:54:11;;;;;;;15.85;7.47;;;;;;;10.28;67.13;93297.53;2071393;69;20142;-83
2024/03/22 07:56:37;;;;;;;14.73;8.18;;;;;;;10.29;66.44;93282.88;2071514;69;20255;-82
2024/03/22 07:59:02;;;;;;;15.15;7.90;;;;;;;10.84;67.57;93289.50;2071497;69;20144;-82
2024/03/22 08:01:28;;;;;;;12.02;7.45;;;;;;;11.05;66.55;93286.03;2068067;69;20156;-81
2024/03/22 08:03:54;;;;;;;14.60;5.88;;;;;;;10.69;64.71;93272.97;2067981;69;20147;-82
2024/03/22 08:06:20;;;;;;;9.10;5.60;;;;;;;11.24;63.77;93275.97;2068042;69;20239;-80
2024/03/22 08:12:45;;;;;;;6.75;3.50;;;;;;;11.66;61.53;93263.97;2071402;69;20127;-79
2024/03/22 08:15:11;;;;;;;4.53;3.00;;;;;;;12.26;59.04;93260.06;2071712;69;20160;-79
2024/03/22 08:17:36;;;;;;;4.68;2.50;;;;;;;12.08;58.26;93257.56;2071219;69;20140;-79
2024/03/22 08:20:02;;;;;;;4.65;2.80;;;;;;;12.63;58.40;93261.00;2071281;69;20236;-80
2024/03/22 08:22:28;;;;;;;5.30;3.10;;;;;;;12.84;56.44;93257.34;2071235;69;20152;-80
2024/03/22 08:24:55;;;;;;;5.30;3.30;;;;;;;13.25;57.28;93259.09;2071345;69;20549;-81
2024/03/22 08:27:21;;;;;;;4.55;2.70;;;;;;;13.32;54.76;93247.53;2071383;69;20190;-81
2024/03/22 08:29:47;;;;;;;4.13;2.70;;;;;;;13.62;53.34;93251.41;2068256;69;20155;-82
2024/03/22 08:32:13;;;;;;;5.68;3.05;;;;;;;13.68;52.97;93243.28;2071804;69;20144;-80
2024/03/22 08:34:39;;;;;;;3.88;2.70;;;;;;;14.29;52.19;93242.41;2071853;69;20136;-79
2024/03/22 08:37:05;;;;;;;6.70;3.72;;;;;;;14.54;53.49;93238.88;2068675;69;20154;-80
2024/03/22 08:39:30;;;;;;;5.53;3.63;;;;;;;14.58;52.02;93230.59;2068540;69;20167;-82
2024/03/22 08:41:56;;;;;;;8.27;3.97;;;;;;;14.97;52.25;93231.28;2072149;69;20140;-82
2024/03/22 08:44:22;;;;;;;7.68;4.47;;;;;;;15.04;51.75;93232.34;2071768;69;20532;-81
2024/03/22 08:50:44;;;;;;;3.97;2.77;;;;;;;15.60;48.75;93225.31;2070189;69;20253;-80
2024/03/22 08:53:10;;;;;;;3.22;2.25;;;;;;;15.80;48.94;93217.09;2072009;69;20322;-80
2024/03/22 08:55:36;;;;;;;5.55;2.50;;;;;;;15.95;49.00;93218.53;2071870;69;20587;-81
2024/03/22 08:58:03;;;;;;;6.60;2.60;;;;;;;16.54;46.97;93204.31;2071986;69;20148;-82
2024/03/22 09:00:29;;;;;;;4.78;2.78;;;;;;;16.39;46.43;93202.16;2071803;69;20623;-81
2024/03/22 09:02:54;;;;;;;4.90;2.10;;;;;;;16.71;46.19;93198.00;2071814;69;20144;-81
2024/03/22 09:05:20;;;;;;;4.68;2.53;;;;;;;15.99;47.05;93190.34;2071721;69;20160;-81
2024/03/22 09:07:45;;;;;;;3.17;2.03;;;;;;;15.90;45.01;93194.91;2071835;69;20229;-81
2024/03/22 09:10:11;;;;;;;3.88;2.20;;;;;;;16.98;44.66;93182.16;2071804;69;20592;-81
2024/03/22 09:12:37;;;;;;;2.90;1.90;;;;;;;16.99;42.43;93183.63;2072119;69;20228;-81
2024/03/22 09:15:03;;;;;;;3.38;1.80;;;;;;;17.67;42.38;93179.47;2071816;69;20152;-81
2024/03/22 09:21:16;;;;;;;3.08;1.75;;;;;;;18.03;40.13;93162.44;2071894;69;20223;-81
2024/03/22 09:23:42;;;;;;;3.45;1.55;;;;;;;18.01;41.75;93171.66;2071817;69;20164;-82
2024/03/22 09:26:07;;;;;;;3.15;1.65;;;;;;;18.54;40.92;93168.03;2071606;69;20168;-82
2024/03/22 09:28:33;;;;;;;2.20;1.70;;;;;;;18.31;41.02;93162.84;2071699;69;20603;-81
2024/03/22 09:31:05;;;;;;;4.78;1.70;;;;;;;18.11;40.37;93153.50;2071632;69;20144;-82
2024/03/22 09:33:35;;;;;;;3.42;2.10;;;;;;;19.53;39.45;93155.25;2065604;69;20504;-82
2024/03/22 09:36:01;;;;;;;3.10;2.10;;;;;;;18.90;39.14;93138.72;2068431;69;20290;-82
2024/03/22 09:38:28;;;;;;;6.25;1.80;;;;;;;18.60;39.69;93141.13;2071891;69;20148;-81
2024/03/22 09:40:54;;;;;;;4.22;2.10;;;;;;;19.34;39.04;93138.88;2068334;69;20143;-80
2024/03/22 09:43:23;;;;;;;4.57;2.00;;;;;;;19.11;38.27;93143.06;2071735;69;20201;-82
2024/03/22 09:45:50;;;;;;;3.38;1.70;;;;;;;19.99;39.48;93135.41;2071771;69;20171;-81
2024/03/22 09:48:19;;;;;;;4.18;1.80;;;;;;;19.04;37.69;93128.56;2071657;69;20223;-82
2024/03/22 09:50:48;;;;;;;2.42;1.80;;;;;;;19.84;38.62;93127.75;2071276;69;20159;-80
2024/03/22 09:53:18;;;;;;;3.38;2.28;;;;;;;20.64;38.10;93113.88;2071680;69;20160;-80
2024/03/22 09:55:46;;;;;;;2.63;2.15;;;;;;;20.91;37.11;93118.22;2071731;69;20148;-80
2024/03/22 09:58:12;;;;;;;3.92;2.88;;;;;;;20.97;36.70;93104.81;2071740;69;20580;-81
2024/03/22 10:00:40;;;;;;;3.97;2.55;;;;;;;21.17;35.66;93103.94;2071723;69;20140;-77
2024/03/22 10:03:07;;;;;;;4.72;2.28;;;;;;;21.98;36.07;93100.34;2071632;69;20668;-78
2024/03/22 10:05:33;;;;;;;2.88;1.92;;;;;;;22.51;36.91;93098.06;2071772;69;20148;-77
2024/03/22 10:08:00;;;;;;;3.80;2.10;;;;;;;22.41;35.02;93089.94;2071722;69;20164;-82
2024/03/22 10:10:25;;;;;;;3.70;2.00;;;;;;;22.79;34.49;93092.94;2068420;69;20155;-78
2024/03/22 10:12:52;;;;;;;3.40;1.80;;;;;;;23.10;32.22;93081.41;2071803;69;20153;-79
2024/03/22 10:15:18;;;;;;;2.42;1.60;;;;;;;23.59;32.17;93083.78;2068538;69;20168;-78
2024/03/22 10:17:45;;;;;;;3.45;1.75;;;;;;;21.81;35.07;93075.59;2071970;69;20226;-78
2024/03/22 10:20:13;;;;;;;4.40;1.70;;;;;;;23.47;33.03;93083.56;2071829;69;20233;-78
2024/03/22 10:22:55;;;;;;;4.10;2.30;;;;;;;23.48;34.22;93064.16;2071698;69;20184;-77
2024/03/22 10:25:20;;;;;;;3.13;2.75;;;;;;;23.53;32.65;93077.19;2071801;69;20144;-78
2024/03/22 10:31:35;;;;;;;2.65;1.83;;;;;;;25.65;29.75;93062.28;2071891;69;20123;-77
2024/03/22 10:34:03;;;;;;;2.25;1.60;;;;;;;25.35;30.42;93054.78;2071791;69;20148;-80
2024/03/22 10:36:31;;;;;;;2.20;1.45;;;;;;;25.44;27.53;93053.44;2071864;69;20136;-78
2024/03/22 10:38:58;;;;;;;4.13;1.48;;;;;;;26.08;27.45;93044.00;2065041;69;20156;-79
2024/03/22 10:41:26;;;;;;;4.18;1.95;;;;;;;28.02;27.20;93044.94;2071183;69;20156;-78
2024/03/22 10:43:52;;;;;;;2.17;1.50;;;;;;;26.51;28.33;93032.78;2071202;69;20239;-81
2024/03/22 10:46:20;;;;;;;2.28;1.50;;;;;;;29.04;24.82;93032.56;2071835;69;20140;-79
2024/03/22 10:48:46;;;;;;;4.25;2.72;;;;;;;26.99;25.61;93019.34;2068093;69;20164;-79
2024/03/22 10:51:14;;;;;;;3.72;1.42;;;;;;;29.25;24.70;93010.75;2070962;69;20145;-77
2024/03/22 10:53:41;;;;;;;1.35;1.08;;;;;;;28.10;24.51;93013.13;2071167;69;20132;-79
2024/03/22 10:56:09;;;;;;;2.53;1.33;;;;;;;30.85;23.60;93004.53;2071618;69;20148;-77
2024/03/22 10:58:40;;;;;;;1.55;1.38;;;;;;;28.56;24.52;93008.75;2071614;69;20188;-78
2024/03/22 11:01:06;;;;;;;1.33;1.10;;;;;;;30.12;22.64;93003.69;2071731;69;20600;-79
2024/03/22 11:03:33;;;;;;;3.40;1.40;;;;;;;31.32;22.54;92992.38;2071536;69;20143;-78
2024/03/22 11:05:59;;;;;;;3.90;1.45;;;;;;;31.67;22.85;92992.66;2068506;69;20293;-80
2024/03/22 11:08:29;;;;;;;4.22;1.60;;;;;;;31.12;21.62;92987.53;2068509;69;20152;-81
2024/03/22 11:11:10;;;;;;;1.70;1.30;;;;;;;32.09;21.36;92990.59;2071748;69;20156;-78
2024/03/22 11:13:39;;;;;;;1.88;1.40;;;;;;;32.81;20.73;92978.47;2071655;69;20172;-79
2024/03/22 11:16:05;;;;;;;1.33;1.23;;;;;;;33.60;19.70;92991.50;2068315;69;20550;-79
2024/03/22 11:18:30;;;;;;;2.83;1.10;;;;;;;34.95;21.12;92993.41;2071613;69;20160;-79
2024/03/22 11:24:43;;;;;;;2.40;1.30;;;;;;;36.92;20.34;92983.81;2071781;69;20170;-79
2024/03/22 11:27:13;;;;;;;2.25;1.50;;;;;;;36.60;19.70;92973.88;2068219;69;20187;-80
2024/03/22 11:29:41;;;;;;;1.95;1.40;;;;;;;37.46;18.18;92974.59;2071548;69;20150;-81
2024/03/22 11:32:10;;;;;;;2.47;1.58;;;;;;;33.68;20.01;92961.41;2071783;69;20149;-82
2024/03/22 11:34:41;;;;;;;2.38;1.33;;;;;;;38.19;18.67;92956.38;2071666;69;20528;-81
2024/03/22 11:37:10;;;;;;;1.52;1.33;;;;;;;40.66;18.24;92954.28;2071514;69;20543;-79
2024/03/22 11:39:36;;;;;;;2.08;1.30;;;;;;;41.00;17.00;92948.16;2071411;69;20140;-79
2024/03/22 11:42:06;;;;;;;1.58;1.02;;;;;;;37.89;16.61;92935.53;2071511;69;20149;-80
2024/03/22 11:44:33;;;;;;;2.65;0.90;;;;;;;36.01;16.92;92914.97;2071397;69;20156;-80
2024/03/22 11:46:59;;;;;;;4.15;0.80;;;;;;;35.75;18.76;92909.94;2071362;69;20144;-80
2024/03/22 11:49:25;;;;;;;1.15;0.80;;;;;;;39.70;16.64;92911.69;2071479;69;20199;-81
2024/03/22 11:51:52;;;;;;;1.05;0.95;;;;;;;43.70;14.47;92918.94;2071322;69;20159;-80
2024/03/22 11:54:21;;;;;;;1.55;0.77;;;;;;;44.43;14.35;92911.31;2071516;69;20311;-80
2024/03/22 11:56:47;;;;;;;1.30;0.77;;;;;;;45.91;12.49;92913.94;2068040;69;20163;-82
2024/03/22 11:59:12;;;;;;;1.70;0.77;;;;;;;43.86;14.52;92903.81;2068165;69;20141;-82
2024/03/22 12:01:38;;;;;;;1.13;0.80;;;;;;;45.77;13.93;92892.53;2068030;69;20167;-82
2024/03/22 12:04:08;;;;;;;1.55;0.90;;;;;;;46.21;12.98;92902.13;2065511;69;20164;-80
2024/03/22 12:06:36;;;;;;;2.38;0.98;;;;;;;43.79;15.22;92893.84;2071830;69;20148;-79
2024/03/22 12:09:03;;;;;;;1.50;0.80;;;;;;;45.18;13.61;92895.97;2071782;69;20579;-81
2024/03/22 12:11:29;;;;;;;1.92;0.80;;;;;;;44.72;13.16;92883.44;2071889;69;20679;-83
2024/03/22 12:13:54;;;;;;;1.58;0.73;;;;;;;41.91;14.38;92877.59;2071933;69;20147;-81